sensor_id;sensor_type;location;lat;lon;timestamp;P1;durP1;ratioP1;P2;durP2;ratioP2
51272;SDS011;37345;59.828;30.328;2022-11-18T00:01:05;1.05;;;0.73;;
51272;SDS011;37345;59.828;30.328;2022-11-18T00:03:32;1.20;;;0.70;;
51272;SDS011;37345;59.828;30.328;2022-11-18T00:05:59;2.15;;;0.90;;
51272;SDS011;37345;59.828;30.328;2022-11-18T00:08:25;0.77;;;0.60;;
51272;SDS011;37345;59.828;30.328;2022-11-18T00:10:51;0.80;;;0.65;;
51272;SDS011;37345;59.828;30.328;2022-11-18T00:13:18;0.88;;;0.65;;
51272;SDS011;37345;59.828;30.328;2022-11-18T00:16:03;5.25;;;1.58;;
51272;SDS011;37345;59.828;30.328;2022-11-18T00:18:31;1.08;;;0.70;;
51272;SDS011;37345;59.828;30.328;2022-11-18T00:21:01;0.50;;;0.50;;
51272;SDS011;37345;59.828;30.328;2022-11-18T00:23:31;0.93;;;0.52;;
51272;SDS011;37345;59.828;30.328;2022-11-18T00:26:01;0.80;;;0.80;;
51272;SDS011;37345;59.828;30.328;2022-11-18T00:28:34;0.87;;;0.67;;
51272;SDS011;37345;59.828;30.328;2022-11-18T00:31:04;0.70;;;0.70;;
51272;SDS011;37345;59.828;30.328;2022-11-18T00:33:31;0.90;;;0.80;;
51272;SDS011;37345;59.828;30.328;2022-11-18T00:35:57;0.90;;;0.82;;
51272;SDS011;37345;59.828;30.328;2022-11-18T00:38:24;0.95;;;0.70;;
51272;SDS011;37345;59.828;30.328;2022-11-18T00:43:32;1.52;;;1.10;;
51272;SDS011;37345;59.828;30.328;2022-11-18T00:45:58;1.95;;;1.33;;
51272;SDS011;37345;59.828;30.328;2022-11-18T00:48:25;1.70;;;1.30;;
51272;SDS011;37345;59.828;30.328;2022-11-18T00:50:51;2.67;;;1.63;;
51272;SDS011;37345;59.828;30.328;2022-11-18T00:53:20;1.88;;;1.35;;
51272;SDS011;37345;59.828;30.328;2022-11-18T00:55:47;2.30;;;1.80;;
51272;SDS011;37345;59.828;30.328;2022-11-18T00:58:13;2.78;;;1.73;;
51272;SDS011;37345;59.828;30.328;2022-11-18T01:00:43;3.00;;;2.00;;
51272;SDS011;37345;59.828;30.328;2022-11-18T01:03:11;3.17;;;1.95;;
51272;SDS011;37345;59.828;30.328;2022-11-18T01:05:37;2.30;;;1.88;;
51272;SDS011;37345;59.828;30.328;2022-11-18T01:08:04;2.88;;;2.40;;
51272;SDS011;37345;59.828;30.328;2022-11-18T01:10:31;3.15;;;2.42;;
51272;SDS011;37345;59.828;30.328;2022-11-18T01:12:57;2.67;;;1.90;;
51272;SDS011;37345;59.828;30.328;2022-11-18T01:15:42;2.67;;;1.63;;
51272;SDS011;37345;59.828;30.328;2022-11-18T01:18:09;1.50;;;1.40;;
51272;SDS011;37345;59.828;30.328;2022-11-18T01:20:35;1.63;;;1.20;;
51272;SDS011;37345;59.828;30.328;2022-11-18T01:23:01;2.00;;;1.40;;
51272;SDS011;37345;59.828;30.328;2022-11-18T01:25:27;1.52;;;1.08;;
51272;SDS011;37345;59.828;30.328;2022-11-18T01:27:54;2.60;;;1.40;;
51272;SDS011;37345;59.828;30.328;2022-11-18T01:30:20;1.73;;;1.20;;
51272;SDS011;37345;59.828;30.328;2022-11-18T01:32:47;2.13;;;1.20;;
51272;SDS011;37345;59.828;30.328;2022-11-18T01:35:13;3.00;;;1.33;;
51272;SDS011;37345;59.828;30.328;2022-11-18T01:37:39;1.33;;;1.10;;
51272;SDS011;37345;59.828;30.328;2022-11-18T01:40:06;1.13;;;1.02;;
51272;SDS011;37345;59.828;30.328;2022-11-18T01:42:32;1.95;;;1.20;;
51272;SDS011;37345;59.828;30.328;2022-11-18T01:47:39;1.50;;;1.10;;
51272;SDS011;37345;59.828;30.328;2022-11-18T01:50:09;2.30;;;1.30;;
51272;SDS011;37345;59.828;30.328;2022-11-18T01:52:37;1.30;;;1.20;;
51272;SDS011;37345;59.828;30.328;2022-11-18T01:55:12;1.95;;;1.30;;
51272;SDS011;37345;59.828;30.328;2022-11-18T01:57:41;1.67;;;1.08;;
51272;SDS011;37345;59.828;30.328;2022-11-18T02:00:10;1.77;;;1.10;;
51272;SDS011;37345;59.828;30.328;2022-11-18T02:02:36;1.88;;;1.23;;
51272;SDS011;37345;59.828;30.328;2022-11-18T02:05:03;2.53;;;1.58;;
51272;SDS011;37345;59.828;30.328;2022-11-18T02:07:32;1.20;;;1.10;;
51272;SDS011;37345;59.828;30.328;2022-11-18T02:10:02;2.38;;;1.50;;
51272;SDS011;37345;59.828;30.328;2022-11-18T02:12:31;3.20;;;1.30;;
51272;SDS011;37345;59.828;30.328;2022-11-18T02:14:57;2.17;;;1.30;;
51272;SDS011;37345;59.828;30.328;2022-11-18T02:17:28;2.35;;;1.25;;
51272;SDS011;37345;59.828;30.328;2022-11-18T02:31:17;1.20;;;0.97;;
51272;SDS011;37345;59.828;30.328;2022-11-18T02:36:42;1.15;;;1.00;;
51272;SDS011;37345;59.828;30.328;2022-11-18T02:39:17;2.05;;;1.30;;
51272;SDS011;37345;59.828;30.328;2022-11-18T02:41:47;1.67;;;1.20;;
51272;SDS011;37345;59.828;30.328;2022-11-18T02:44:16;1.13;;;1.00;;
51272;SDS011;37345;59.828;30.328;2022-11-18T02:46:45;1.63;;;1.30;;
51272;SDS011;37345;59.828;30.328;2022-11-18T02:49:20;1.25;;;1.02;;
51272;SDS011;37345;59.828;30.328;2022-11-18T02:51:53;1.23;;;1.05;;
51272;SDS011;37345;59.828;30.328;2022-11-18T02:54:20;1.67;;;1.17;;
51272;SDS011;37345;59.828;30.328;2022-11-18T02:56:47;2.53;;;1.42;;
51272;SDS011;37345;59.828;30.328;2022-11-18T02:59:18;1.60;;;1.13;;
51272;SDS011;37345;59.828;30.328;2022-11-18T03:01:44;1.13;;;1.00;;
51272;SDS011;37345;59.828;30.328;2022-11-18T03:04:10;1.58;;;1.10;;
51272;SDS011;37345;59.828;30.328;2022-11-18T03:06:39;1.35;;;1.05;;
51272;SDS011;37345;59.828;30.328;2022-11-18T03:09:20;1.10;;;1.00;;
51272;SDS011;37345;59.828;30.328;2022-11-18T03:12:04;1.95;;;1.10;;
51272;SDS011;37345;59.828;30.328;2022-11-18T03:20:26;1.73;;;1.33;;
51272;SDS011;37345;59.828;30.328;2022-11-18T03:23:07;2.13;;;1.38;;
51272;SDS011;37345;59.828;30.328;2022-11-18T03:25:54;1.33;;;1.20;;
51272;SDS011;37345;59.828;30.328;2022-11-18T03:28:34;1.45;;;1.05;;
51272;SDS011;37345;59.828;30.328;2022-11-18T03:31:06;2.25;;;1.48;;
51272;SDS011;37345;59.828;30.328;2022-11-18T03:33:36;1.70;;;1.50;;
51272;SDS011;37345;59.828;30.328;2022-11-18T03:36:05;3.22;;;1.60;;
51272;SDS011;37345;59.828;30.328;2022-11-18T03:38:35;3.00;;;1.63;;
51272;SDS011;37345;59.828;30.328;2022-11-18T03:41:05;3.05;;;1.90;;
51272;SDS011;37345;59.828;30.328;2022-11-18T03:43:35;4.18;;;1.85;;
51272;SDS011;37345;59.828;30.328;2022-11-18T03:46:10;2.47;;;1.50;;
51272;SDS011;37345;59.828;30.328;2022-11-18T03:48:46;3.72;;;1.58;;
51272;SDS011;37345;59.828;30.328;2022-11-18T03:51:22;4.85;;;2.10;;
51272;SDS011;37345;59.828;30.328;2022-11-18T03:54:15;3.13;;;1.67;;
51272;SDS011;37345;59.828;30.328;2022-11-18T03:57:00;7.60;;;3.28;;
51272;SDS011;37345;59.828;30.328;2022-11-18T03:59:38;6.55;;;2.58;;
51272;SDS011;37345;59.828;30.328;2022-11-18T04:02:15;3.08;;;1.95;;
51272;SDS011;37345;59.828;30.328;2022-11-18T04:04:47;2.55;;;1.27;;
51272;SDS011;37345;59.828;30.328;2022-11-18T04:07:22;3.85;;;1.83;;
51272;SDS011;37345;59.828;30.328;2022-11-18T04:10:12;3.10;;;1.92;;
51272;SDS011;37345;59.828;30.328;2022-11-18T04:12:46;6.82;;;2.88;;
51272;SDS011;37345;59.828;30.328;2022-11-18T04:15:38;5.03;;;2.35;;
51272;SDS011;37345;59.828;30.328;2022-11-18T04:18:06;2.25;;;1.63;;
51272;SDS011;37345;59.828;30.328;2022-11-18T04:20:32;2.65;;;1.90;;
51272;SDS011;37345;59.828;30.328;2022-11-18T04:22:58;4.47;;;1.90;;
51272;SDS011;37345;59.828;30.328;2022-11-18T04:25:25;2.40;;;1.60;;
51272;SDS011;37345;59.828;30.328;2022-11-18T04:27:51;2.63;;;1.63;;
51272;SDS011;37345;59.828;30.328;2022-11-18T04:30:17;3.10;;;1.63;;
51272;SDS011;37345;59.828;30.328;2022-11-18T04:32:44;2.33;;;1.63;;
51272;SDS011;37345;59.828;30.328;2022-11-18T04:35:10;2.83;;;1.65;;
51272;SDS011;37345;59.828;30.328;2022-11-18T04:37:35;2.38;;;1.83;;
51272;SDS011;37345;59.828;30.328;2022-11-18T04:40:02;2.73;;;1.63;;
51272;SDS011;37345;59.828;30.328;2022-11-18T04:42:28;2.42;;;1.70;;
51272;SDS011;37345;59.828;30.328;2022-11-18T04:44:54;4.07;;;2.03;;
51272;SDS011;37345;59.828;30.328;2022-11-18T04:47:20;2.70;;;1.73;;
51272;SDS011;37345;59.828;30.328;2022-11-18T04:49:46;4.33;;;2.20;;
51272;SDS011;37345;59.828;30.328;2022-11-18T04:52:12;4.20;;;1.80;;
51272;SDS011;37345;59.828;30.328;2022-11-18T04:54:38;3.55;;;2.10;;
51272;SDS011;37345;59.828;30.328;2022-11-18T04:57:07;4.68;;;1.90;;
51272;SDS011;37345;59.828;30.328;2022-11-18T04:59:33;3.57;;;2.40;;
51272;SDS011;37345;59.828;30.328;2022-11-18T05:01:59;5.93;;;2.22;;
51272;SDS011;37345;59.828;30.328;2022-11-18T05:04:26;5.00;;;2.38;;
51272;SDS011;37345;59.828;30.328;2022-11-18T05:06:54;3.40;;;2.30;;
51272;SDS011;37345;59.828;30.328;2022-11-18T05:09:21;2.80;;;1.50;;
51272;SDS011;37345;59.828;30.328;2022-11-18T05:11:47;6.82;;;2.38;;
51272;SDS011;37345;59.828;30.328;2022-11-18T05:14:32;5.40;;;2.45;;
51272;SDS011;37345;59.828;30.328;2022-11-18T05:16:59;3.38;;;2.28;;
51272;SDS011;37345;59.828;30.328;2022-11-18T05:19:26;4.40;;;2.20;;
51272;SDS011;37345;59.828;30.328;2022-11-18T05:21:52;2.42;;;1.35;;
51272;SDS011;37345;59.828;30.328;2022-11-18T05:24:18;2.83;;;1.40;;
51272;SDS011;37345;59.828;30.328;2022-11-18T05:26:44;1.70;;;1.38;;
51272;SDS011;37345;59.828;30.328;2022-11-18T05:29:10;2.55;;;1.50;;
51272;SDS011;37345;59.828;30.328;2022-11-18T05:31:37;1.70;;;1.35;;
51272;SDS011;37345;59.828;30.328;2022-11-18T05:34:03;4.43;;;1.20;;
51272;SDS011;37345;59.828;30.328;2022-11-18T05:36:30;2.25;;;1.58;;
51272;SDS011;37345;59.828;30.328;2022-11-18T05:38:59;2.63;;;1.10;;
51272;SDS011;37345;59.828;30.328;2022-11-18T05:41:25;2.25;;;1.55;;
51272;SDS011;37345;59.828;30.328;2022-11-18T05:44:09;2.10;;;1.40;;
51272;SDS011;37345;59.828;30.328;2022-11-18T05:46:35;1.90;;;1.05;;
51272;SDS011;37345;59.828;30.328;2022-11-18T05:49:01;1.97;;;1.33;;
51272;SDS011;37345;59.828;30.328;2022-11-18T05:51:27;1.40;;;1.13;;
51272;SDS011;37345;59.828;30.328;2022-11-18T05:53:52;1.88;;;1.40;;
51272;SDS011;37345;59.828;30.328;2022-11-18T05:58:48;1.08;;;0.98;;
51272;SDS011;37345;59.828;30.328;2022-11-18T06:01:15;1.45;;;1.23;;
51272;SDS011;37345;59.828;30.328;2022-11-18T06:03:44;1.37;;;1.17;;
51272;SDS011;37345;59.828;30.328;2022-11-18T06:06:10;1.70;;;1.05;;
51272;SDS011;37345;59.828;30.328;2022-11-18T06:08:40;3.80;;;1.08;;
51272;SDS011;37345;59.828;30.328;2022-11-18T06:11:14;2.50;;;1.25;;
51272;SDS011;37345;59.828;30.328;2022-11-18T06:13:45;2.22;;;1.15;;
51272;SDS011;37345;59.828;30.328;2022-11-18T06:16:19;2.00;;;1.27;;
51272;SDS011;37345;59.828;30.328;2022-11-18T06:18:49;1.40;;;1.10;;
51272;SDS011;37345;59.828;30.328;2022-11-18T06:21:15;1.05;;;0.88;;
51272;SDS011;37345;59.828;30.328;2022-11-18T06:23:41;1.17;;;1.00;;
51272;SDS011;37345;59.828;30.328;2022-11-18T06:26:07;1.90;;;1.30;;
51272;SDS011;37345;59.828;30.328;2022-11-18T06:28:36;2.15;;;1.20;;
51272;SDS011;37345;59.828;30.328;2022-11-18T06:31:03;3.20;;;1.40;;
51272;SDS011;37345;59.828;30.328;2022-11-18T06:33:29;2.05;;;1.30;;
51272;SDS011;37345;59.828;30.328;2022-11-18T06:35:54;2.15;;;1.40;;
51272;SDS011;37345;59.828;30.328;2022-11-18T06:38:22;3.97;;;1.55;;
51272;SDS011;37345;59.828;30.328;2022-11-18T06:40:48;2.42;;;1.30;;
51272;SDS011;37345;59.828;30.328;2022-11-18T06:43:14;1.95;;;1.40;;
51272;SDS011;37345;59.828;30.328;2022-11-18T06:45:59;1.73;;;1.10;;
51272;SDS011;37345;59.828;30.328;2022-11-18T06:48:44;1.55;;;1.10;;
51272;SDS011;37345;59.828;30.328;2022-11-18T06:51:10;2.22;;;1.20;;
51272;SDS011;37345;59.828;30.328;2022-11-18T06:53:36;1.27;;;0.82;;
51272;SDS011;37345;59.828;30.328;2022-11-18T06:56:03;1.58;;;1.20;;
51272;SDS011;37345;59.828;30.328;2022-11-18T06:58:32;1.80;;;1.40;;
51272;SDS011;37345;59.828;30.328;2022-11-18T07:01:07;2.08;;;1.33;;
51272;SDS011;37345;59.828;30.328;2022-11-18T07:03:35;3.10;;;1.40;;
51272;SDS011;37345;59.828;30.328;2022-11-18T07:06:01;1.67;;;1.20;;
51272;SDS011;37345;59.828;30.328;2022-11-18T07:08:26;1.85;;;1.45;;
51272;SDS011;37345;59.828;30.328;2022-11-18T07:10:52;3.13;;;1.35;;
51272;SDS011;37345;59.828;30.328;2022-11-18T07:13:18;1.80;;;1.33;;
51272;SDS011;37345;59.828;30.328;2022-11-18T07:15:44;5.70;;;1.30;;
51272;SDS011;37345;59.828;30.328;2022-11-18T07:18:10;3.22;;;1.15;;
51272;SDS011;37345;59.828;30.328;2022-11-18T07:20:36;1.50;;;1.20;;
51272;SDS011;37345;59.828;30.328;2022-11-18T07:23:01;1.25;;;1.13;;
51272;SDS011;37345;59.828;30.328;2022-11-18T07:25:27;1.50;;;0.80;;
51272;SDS011;37345;59.828;30.328;2022-11-18T07:27:53;1.40;;;0.93;;
51272;SDS011;37345;59.828;30.328;2022-11-18T07:30:19;2.67;;;1.20;;
51272;SDS011;37345;59.828;30.328;2022-11-18T07:32:45;1.08;;;0.98;;
51272;SDS011;37345;59.828;30.328;2022-11-18T07:35:11;1.48;;;1.10;;
51272;SDS011;37345;59.828;30.328;2022-11-18T07:37:37;2.27;;;1.20;;
51272;SDS011;37345;59.828;30.328;2022-11-18T07:40:03;1.70;;;1.17;;
51272;SDS011;37345;59.828;30.328;2022-11-18T07:42:29;2.22;;;1.30;;
51272;SDS011;37345;59.828;30.328;2022-11-18T07:45:07;1.90;;;1.10;;
51272;SDS011;37345;59.828;30.328;2022-11-18T07:47:36;2.22;;;1.50;;
51272;SDS011;37345;59.828;30.328;2022-11-18T07:50:03;1.77;;;0.97;;
51272;SDS011;37345;59.828;30.328;2022-11-18T07:52:29;1.95;;;1.20;;
51272;SDS011;37345;59.828;30.328;2022-11-18T07:54:55;2.23;;;1.13;;
51272;SDS011;37345;59.828;30.328;2022-11-18T07:57:21;2.77;;;1.20;;
51272;SDS011;37345;59.828;30.328;2022-11-18T07:59:46;1.57;;;1.10;;
51272;SDS011;37345;59.828;30.328;2022-11-18T08:02:12;2.30;;;1.10;;
51272;SDS011;37345;59.828;30.328;2022-11-18T08:04:38;3.13;;;1.45;;
51272;SDS011;37345;59.828;30.328;2022-11-18T08:07:04;2.03;;;1.17;;
51272;SDS011;37345;59.828;30.328;2022-11-18T08:09:33;2.20;;;1.33;;
51272;SDS011;37345;59.828;30.328;2022-11-18T08:11:59;4.13;;;1.13;;
51272;SDS011;37345;59.828;30.328;2022-11-18T08:14:25;1.33;;;1.17;;
51272;SDS011;37345;59.828;30.328;2022-11-18T08:16:52;1.60;;;0.98;;
51272;SDS011;37345;59.828;30.328;2022-11-18T08:19:19;2.30;;;1.17;;
51272;SDS011;37345;59.828;30.328;2022-11-18T08:21:45;2.13;;;1.10;;
51272;SDS011;37345;59.828;30.328;2022-11-18T08:24:10;2.25;;;1.08;;
51272;SDS011;37345;59.828;30.328;2022-11-18T08:26:36;2.30;;;1.00;;
51272;SDS011;37345;59.828;30.328;2022-11-18T08:29:03;2.50;;;0.93;;
51272;SDS011;37345;59.828;30.328;2022-11-18T08:31:29;1.75;;;0.98;;
51272;SDS011;37345;59.828;30.328;2022-11-18T08:33:56;2.53;;;1.40;;
51272;SDS011;37345;59.828;30.328;2022-11-18T08:36:32;2.30;;;0.80;;
51272;SDS011;37345;59.828;30.328;2022-11-18T08:39:00;2.33;;;1.25;;
51272;SDS011;37345;59.828;30.328;2022-11-18T08:41:32;3.20;;;1.00;;
51272;SDS011;37345;59.828;30.328;2022-11-18T08:44:00;2.50;;;0.93;;
51272;SDS011;37345;59.828;30.328;2022-11-18T08:46:26;2.80;;;1.50;;
51272;SDS011;37345;59.828;30.328;2022-11-18T08:48:53;3.72;;;1.10;;
51272;SDS011;37345;59.828;30.328;2022-11-18T08:51:19;1.60;;;1.00;;
51272;SDS011;37345;59.828;30.328;2022-11-18T08:53:45;1.67;;;0.90;;
51272;SDS011;37345;59.828;30.328;2022-11-18T08:56:14;1.75;;;0.98;;
51272;SDS011;37345;59.828;30.328;2022-11-18T08:58:42;1.80;;;1.00;;
51272;SDS011;37345;59.828;30.328;2022-11-18T09:01:09;4.20;;;0.95;;
51272;SDS011;37345;59.828;30.328;2022-11-18T09:03:35;3.13;;;1.50;;
51272;SDS011;37345;59.828;30.328;2022-11-18T09:06:07;3.60;;;1.20;;
51272;SDS011;37345;59.828;30.328;2022-11-18T09:08:34;2.63;;;0.98;;
51272;SDS011;37345;59.828;30.328;2022-11-18T09:11:04;3.03;;;1.00;;
51272;SDS011;37345;59.828;30.328;2022-11-18T09:13:38;1.92;;;0.88;;
51272;SDS011;37345;59.828;30.328;2022-11-18T09:16:04;3.33;;;1.42;;
51272;SDS011;37345;59.828;30.328;2022-11-18T09:18:30;1.92;;;1.20;;
51272;SDS011;37345;59.828;30.328;2022-11-18T09:20:57;1.15;;;0.82;;
51272;SDS011;37345;59.828;30.328;2022-11-18T09:23:32;1.65;;;0.63;;
51272;SDS011;37345;59.828;30.328;2022-11-18T09:26:09;1.33;;;0.98;;
51272;SDS011;37345;59.828;30.328;2022-11-18T09:28:36;2.22;;;1.13;;
51272;SDS011;37345;59.828;30.328;2022-11-18T09:31:03;3.28;;;1.20;;
51272;SDS011;37345;59.828;30.328;2022-11-18T09:33:29;2.60;;;1.10;;
51272;SDS011;37345;59.828;30.328;2022-11-18T09:35:55;1.45;;;1.05;;
51272;SDS011;37345;59.828;30.328;2022-11-18T09:38:21;1.38;;;1.00;;
51272;SDS011;37345;59.828;30.328;2022-11-18T09:41:01;1.97;;;1.20;;
51272;SDS011;37345;59.828;30.328;2022-11-18T09:49:10;2.95;;;1.20;;
51272;SDS011;37345;59.828;30.328;2022-11-18T09:51:42;4.82;;;1.42;;
51272;SDS011;37345;59.828;30.328;2022-11-18T09:54:11;2.30;;;1.10;;
51272;SDS011;37345;59.828;30.328;2022-11-18T09:56:44;9.63;;;1.45;;
51272;SDS011;37345;59.828;30.328;2022-11-18T09:59:12;1.20;;;1.08;;
51272;SDS011;37345;59.828;30.328;2022-11-18T10:01:39;2.05;;;1.30;;
51272;SDS011;37345;59.828;30.328;2022-11-18T10:04:10;1.50;;;0.95;;
51272;SDS011;37345;59.828;30.328;2022-11-18T10:06:40;4.65;;;1.20;;
51272;SDS011;37345;59.828;30.328;2022-11-18T10:09:11;1.13;;;1.00;;
51272;SDS011;37345;59.828;30.328;2022-11-18T10:20:15;1.10;;;0.88;;
51272;SDS011;37345;59.828;30.328;2022-11-18T10:22:57;0.70;;;0.70;;
51272;SDS011;37345;59.828;30.328;2022-11-18T10:25:31;2.88;;;1.05;;
51272;SDS011;37345;59.828;30.328;2022-11-18T10:27:56;4.55;;;0.82;;
51272;SDS011;37345;59.828;30.328;2022-11-18T10:30:38;1.40;;;0.90;;
51272;SDS011;37345;59.828;30.328;2022-11-18T10:35:45;0.63;;;0.63;;
51272;SDS011;37345;59.828;30.328;2022-11-18T10:40:43;2.50;;;0.75;;
51272;SDS011;37345;59.828;30.328;2022-11-18T10:46:53;2.80;;;0.90;;
51272;SDS011;37345;59.828;30.328;2022-11-18T10:51:35;0.77;;;0.68;;
51272;SDS011;37345;59.828;30.328;2022-11-18T10:54:19;1.83;;;0.90;;
51272;SDS011;37345;59.828;30.328;2022-11-18T11:02:01;2.58;;;0.85;;
51272;SDS011;37345;59.828;30.328;2022-11-18T11:04:37;3.58;;;0.90;;
51272;SDS011;37345;59.828;30.328;2022-11-18T11:12:36;0.90;;;0.80;;
51272;SDS011;37345;59.828;30.328;2022-11-18T11:18:21;1.95;;;0.80;;
51272;SDS011;37345;59.828;30.328;2022-11-18T11:21:11;1.40;;;0.80;;
51272;SDS011;37345;59.828;30.328;2022-11-18T11:23:38;1.23;;;1.00;;
51272;SDS011;37345;59.828;30.328;2022-11-18T11:31:33;0.65;;;0.50;;
51272;SDS011;37345;59.828;30.328;2022-11-18T11:34:16;0.70;;;0.52;;
51272;SDS011;37345;59.828;30.328;2022-11-18T11:39:44;0.85;;;0.68;;
51272;SDS011;37345;59.828;30.328;2022-11-18T11:42:56;0.60;;;0.43;;
51272;SDS011;37345;59.828;30.328;2022-11-18T11:45:30;2.28;;;0.70;;
51272;SDS011;37345;59.828;30.328;2022-11-18T11:48:05;3.13;;;0.75;;
51272;SDS011;37345;59.828;30.328;2022-11-18T12:01:56;1.02;;;0.70;;
51272;SDS011;37345;59.828;30.328;2022-11-18T12:04:54;1.63;;;0.52;;
51272;SDS011;37345;59.828;30.328;2022-11-18T12:07:43;2.25;;;0.70;;
51272;SDS011;37345;59.828;30.328;2022-11-18T12:10:27;0.87;;;0.60;;
51272;SDS011;37345;59.828;30.328;2022-11-18T12:24:23;1.75;;;0.80;;
51272;SDS011;37345;59.828;30.328;2022-11-18T12:26:58;2.63;;;1.17;;
51272;SDS011;37345;59.828;30.328;2022-11-18T12:29:37;1.10;;;0.70;;
51272;SDS011;37345;59.828;30.328;2022-11-18T12:37:37;2.38;;;1.10;;
51272;SDS011;37345;59.828;30.328;2022-11-18T12:42:57;2.80;;;1.00;;
51272;SDS011;37345;59.828;30.328;2022-11-18T12:56:09;4.00;;;0.95;;
51272;SDS011;37345;59.828;30.328;2022-11-18T12:58:45;1.55;;;0.90;;
51272;SDS011;37345;59.828;30.328;2022-11-18T13:01:12;1.15;;;0.85;;
51272;SDS011;37345;59.828;30.328;2022-11-18T13:03:40;3.65;;;0.85;;
51272;SDS011;37345;59.828;30.328;2022-11-18T13:06:16;0.95;;;0.63;;
51272;SDS011;37345;59.828;30.328;2022-11-18T13:08:51;0.65;;;0.65;;
51272;SDS011;37345;59.828;30.328;2022-11-18T13:11:27;1.50;;;1.00;;
51272;SDS011;37345;59.828;30.328;2022-11-18T13:14:13;2.22;;;0.90;;
51272;SDS011;37345;59.828;30.328;2022-11-18T13:17:00;6.70;;;0.77;;
51272;SDS011;37345;59.828;30.328;2022-11-18T13:19:58;1.20;;;0.95;;
51272;SDS011;37345;59.828;30.328;2022-11-18T13:22:23;2.30;;;1.23;;
51272;SDS011;37345;59.828;30.328;2022-11-18T13:25:21;4.70;;;1.30;;
51272;SDS011;37345;59.828;30.328;2022-11-18T13:27:48;3.67;;;1.30;;
51272;SDS011;37345;59.828;30.328;2022-11-18T13:30:29;3.08;;;1.20;;
51272;SDS011;37345;59.828;30.328;2022-11-18T13:32:56;0.95;;;0.73;;
51272;SDS011;37345;59.828;30.328;2022-11-18T13:35:23;2.88;;;1.00;;
51272;SDS011;37345;59.828;30.328;2022-11-18T13:37:55;6.63;;;0.98;;
51272;SDS011;37345;59.828;30.328;2022-11-18T13:40:38;1.23;;;0.80;;
51272;SDS011;37345;59.828;30.328;2022-11-18T13:43:28;1.10;;;0.63;;
51272;SDS011;37345;59.828;30.328;2022-11-18T13:45:55;2.88;;;0.95;;
51272;SDS011;37345;59.828;30.328;2022-11-18T13:48:24;1.63;;;0.88;;
51272;SDS011;37345;59.828;30.328;2022-11-18T13:50:51;1.23;;;0.75;;
51272;SDS011;37345;59.828;30.328;2022-11-18T13:53:25;3.22;;;0.70;;
51272;SDS011;37345;59.828;30.328;2022-11-18T13:56:00;3.08;;;1.02;;
51272;SDS011;37345;59.828;30.328;2022-11-18T13:58:59;1.45;;;0.90;;
51272;SDS011;37345;59.828;30.328;2022-11-18T14:01:26;1.40;;;0.90;;
51272;SDS011;37345;59.828;30.328;2022-11-18T14:03:56;1.92;;;0.93;;
51272;SDS011;37345;59.828;30.328;2022-11-18T14:09:06;2.85;;;1.00;;
51272;SDS011;37345;59.828;30.328;2022-11-18T14:11:55;2.20;;;0.90;;
51272;SDS011;37345;59.828;30.328;2022-11-18T14:14:31;2.10;;;1.08;;
51272;SDS011;37345;59.828;30.328;2022-11-18T14:19:42;2.38;;;1.13;;
51272;SDS011;37345;59.828;30.328;2022-11-18T14:22:12;5.07;;;2.03;;
51272;SDS011;37345;59.828;30.328;2022-11-18T14:24:42;2.00;;;0.80;;
51272;SDS011;37345;59.828;30.328;2022-11-18T14:27:37;1.40;;;0.60;;
51272;SDS011;37345;59.828;30.328;2022-11-18T14:33:52;1.83;;;1.00;;
51272;SDS011;37345;59.828;30.328;2022-11-18T14:35:55;1.45;;;0.77;;
51272;SDS011;37345;59.828;30.328;2022-11-18T14:41:02;3.33;;;1.10;;
51272;SDS011;37345;59.828;30.328;2022-11-18T14:43:30;1.25;;;1.00;;
51272;SDS011;37345;59.828;30.328;2022-11-18T14:46:09;1.90;;;0.80;;
51272;SDS011;37345;59.828;30.328;2022-11-18T14:48:39;2.17;;;1.20;;
51272;SDS011;37345;59.828;30.328;2022-11-18T14:51:05;4.20;;;1.00;;
51272;SDS011;37345;59.828;30.328;2022-11-18T14:53:34;2.13;;;1.25;;
51272;SDS011;37345;59.828;30.328;2022-11-18T14:55:59;1.60;;;0.90;;
51272;SDS011;37345;59.828;30.328;2022-11-18T14:58:26;1.58;;;1.02;;
51272;SDS011;37345;59.828;30.328;2022-11-18T15:00:51;2.97;;;1.10;;
51272;SDS011;37345;59.828;30.328;2022-11-18T15:03:17;1.70;;;1.00;;
51272;SDS011;37345;59.828;30.328;2022-11-18T15:05:43;2.72;;;1.10;;
51272;SDS011;37345;59.828;30.328;2022-11-18T15:08:09;1.40;;;1.02;;
51272;SDS011;37345;59.828;30.328;2022-11-18T15:10:35;1.42;;;0.98;;
51272;SDS011;37345;59.828;30.328;2022-11-18T15:13:00;3.07;;;1.03;;
51272;SDS011;37345;59.828;30.328;2022-11-18T15:15:26;1.75;;;0.85;;
51272;SDS011;37345;59.828;30.328;2022-11-18T15:17:52;1.73;;;1.10;;
51272;SDS011;37345;59.828;30.328;2022-11-18T15:20:19;1.80;;;0.93;;
51272;SDS011;37345;59.828;30.328;2022-11-18T15:22:46;1.05;;;0.85;;
51272;SDS011;37345;59.828;30.328;2022-11-18T15:25:12;1.80;;;1.10;;
51272;SDS011;37345;59.828;30.328;2022-11-18T15:27:38;4.32;;;0.95;;
51272;SDS011;37345;59.828;30.328;2022-11-18T15:30:04;1.08;;;0.70;;
51272;SDS011;37345;59.828;30.328;2022-11-18T15:32:34;2.08;;;1.02;;
51272;SDS011;37345;59.828;30.328;2022-11-18T15:34:59;1.63;;;0.73;;
51272;SDS011;37345;59.828;30.328;2022-11-18T15:37:25;1.45;;;0.95;;
51272;SDS011;37345;59.828;30.328;2022-11-18T15:39:51;3.78;;;0.93;;
51272;SDS011;37345;59.828;30.328;2022-11-18T15:42:17;6.65;;;1.85;;
51272;SDS011;37345;59.828;30.328;2022-11-18T15:44:43;1.73;;;1.20;;
51272;SDS011;37345;59.828;30.328;2022-11-18T15:47:10;2.60;;;0.60;;
51272;SDS011;37345;59.828;30.328;2022-11-18T15:49:36;2.73;;;1.30;;
51272;SDS011;37345;59.828;30.328;2022-11-18T15:52:08;1.80;;;1.10;;
51272;SDS011;37345;59.828;30.328;2022-11-18T15:54:35;3.63;;;1.25;;
51272;SDS011;37345;59.828;30.328;2022-11-18T15:57:01;2.72;;;1.13;;
51272;SDS011;37345;59.828;30.328;2022-11-18T15:59:27;2.22;;;1.00;;
51272;SDS011;37345;59.828;30.328;2022-11-18T16:01:53;2.13;;;1.00;;
51272;SDS011;37345;59.828;30.328;2022-11-18T16:04:20;5.28;;;1.40;;
51272;SDS011;37345;59.828;30.328;2022-11-18T16:06:46;2.25;;;0.80;;
51272;SDS011;37345;59.828;30.328;2022-11-18T16:09:13;2.65;;;1.27;;
51272;SDS011;37345;59.828;30.328;2022-11-18T16:11:40;1.15;;;0.90;;
51272;SDS011;37345;59.828;30.328;2022-11-18T16:14:24;3.10;;;0.93;;
51272;SDS011;37345;59.828;30.328;2022-11-18T16:16:50;1.23;;;0.98;;
51272;SDS011;37345;59.828;30.328;2022-11-18T16:19:19;2.17;;;1.00;;
51272;SDS011;37345;59.828;30.328;2022-11-18T16:21:49;2.40;;;1.17;;
51272;SDS011;37345;59.828;30.328;2022-11-18T16:24:18;2.45;;;1.23;;
51272;SDS011;37345;59.828;30.328;2022-11-18T16:26:46;1.60;;;1.27;;
51272;SDS011;37345;59.828;30.328;2022-11-18T16:29:13;2.60;;;1.05;;
51272;SDS011;37345;59.828;30.328;2022-11-18T16:31:41;1.77;;;1.08;;
51272;SDS011;37345;59.828;30.328;2022-11-18T16:36:38;6.57;;;1.30;;
51272;SDS011;37345;59.828;30.328;2022-11-18T16:39:06;2.00;;;1.10;;
51272;SDS011;37345;59.828;30.328;2022-11-18T16:41:34;1.48;;;1.20;;
51272;SDS011;37345;59.828;30.328;2022-11-18T16:44:04;2.13;;;1.33;;
51272;SDS011;37345;59.828;30.328;2022-11-18T16:46:35;4.70;;;1.63;;
51272;SDS011;37345;59.828;30.328;2022-11-18T16:49:03;3.03;;;1.60;;
51272;SDS011;37345;59.828;30.328;2022-11-18T16:51:30;3.33;;;1.45;;
51272;SDS011;37345;59.828;30.328;2022-11-18T16:53:59;1.60;;;1.27;;
51272;SDS011;37345;59.828;30.328;2022-11-18T16:56:27;2.10;;;1.30;;
51272;SDS011;37345;59.828;30.328;2022-11-18T16:59:02;2.70;;;1.50;;
51272;SDS011;37345;59.828;30.328;2022-11-18T17:01:30;2.30;;;1.33;;